createdAt,value
2023-02-27T00:02:13.980Z,2.60
2023-02-27T00:04:53.038Z,2.63
2023-02-27T00:07:30.094Z,2.00
2023-02-27T00:09:57.421Z,2.88
2023-02-27T00:12:35.757Z,1.63
2023-02-27T00:15:08.462Z,1.75
2023-02-27T00:17:44.613Z,2.50
2023-02-27T00:20:22.321Z,2.28
2023-02-27T00:22:53.258Z,1.80
2023-02-27T00:25:23.536Z,1.75
2023-02-27T00:27:51.933Z,1.55
2023-02-27T00:30:26.548Z,1.60
2023-02-27T00:32:55.558Z,1.92
2023-02-27T00:35:22.811Z,2.05
2023-02-27T00:38:23.085Z,1.95
2023-02-27T00:40:53.508Z,1.73
2023-02-27T00:43:20.712Z,1.65
2023-02-27T00:45:51.810Z,1.40
2023-02-27T00:48:24.594Z,2.35
2023-02-27T00:50:52.455Z,1.90
2023-02-27T00:53:26.103Z,2.67
2023-02-27T00:56:04.586Z,2.47
2023-02-27T01:01:01.885Z,1.42
2023-02-27T01:03:40.760Z,2.63
2023-02-27T01:08:49.747Z,2.70
2023-02-27T01:11:19.892Z,2.80
2023-02-27T01:14:15.210Z,2.45
2023-02-27T01:16:45.709Z,2.35
2023-02-27T01:19:16.295Z,2.90
2023-02-27T01:21:49.501Z,3.05
2023-02-27T01:24:21.906Z,2.63
2023-02-27T01:26:53.095Z,2.05
2023-02-27T01:29:23.273Z,2.75
2023-02-27T01:31:51.633Z,2.70
2023-02-27T01:34:27.027Z,2.03
2023-02-27T01:36:57.340Z,2.47
2023-02-27T01:39:28.668Z,2.72
2023-02-27T01:41:58.330Z,2.35
2023-02-27T01:45:04.656Z,2.20
2023-02-27T01:47:42.059Z,2.45
2023-02-27T01:50:16.540Z,2.70
2023-02-27T01:52:52.875Z,2.40
2023-02-27T01:55:25.071Z,2.70
2023-02-27T01:57:57.009Z,1.90
2023-02-27T02:00:25.279Z,3.30
2023-02-27T02:03:02.172Z,3.03
2023-02-27T02:05:38.120Z,2.83
2023-02-27T02:08:09.131Z,2.50
2023-02-27T02:10:43.350Z,2.35
2023-02-27T02:13:11.326Z,1.98
2023-02-27T02:15:49.042Z,2.40
2023-02-27T02:21:35.539Z,3.85
2023-02-27T02:24:43.352Z,1.88
2023-02-27T02:27:29.774Z,2.47
2023-02-27T02:30:40.975Z,2.72
2023-02-27T02:33:49.011Z,4.20
2023-02-27T02:36:46.183Z,2.78
2023-02-27T02:39:48.074Z,2.55
2023-02-27T02:42:46.909Z,2.10
2023-02-27T02:45:44.416Z,3.58
2023-02-27T02:48:51.105Z,2.90
2023-02-27T02:51:32.602Z,3.05
2023-02-27T02:54:18.036Z,2.92
2023-02-27T02:56:57.550Z,2.70
2023-02-27T02:59:41.820Z,3.58
2023-02-27T03:02:17.249Z,3.22
2023-02-27T03:05:08.491Z,3.10
2023-02-27T03:08:02.747Z,2.47
2023-02-27T03:10:38.678Z,2.58
2023-02-27T03:13:14.314Z,3.00
2023-02-27T03:15:50.279Z,2.83
2023-02-27T03:18:26.957Z,2.88
2023-02-27T03:21:07.643Z,2.58
2023-02-27T03:23:48.536Z,2.85
2023-02-27T03:26:24.463Z,2.75
2023-02-27T03:29:07.038Z,3.03
2023-02-27T03:31:40.810Z,3.28
2023-02-27T03:34:39.333Z,3.47
2023-02-27T03:37:08.426Z,3.25
2023-02-27T03:39:55.115Z,3.67
2023-02-27T03:42:42.534Z,3.88
2023-02-27T03:45:28.590Z,2.67
2023-02-27T03:47:58.348Z,2.63
2023-02-27T03:52:56.806Z,3.08
2023-02-27T03:55:51.899Z,2.95
2023-02-27T03:58:21.661Z,4.00
2023-02-27T04:00:49.404Z,3.38
2023-02-27T04:03:17.568Z,3.55
2023-02-27T04:05:45.419Z,3.38
2023-02-27T04:08:40.035Z,3.75
2023-02-27T04:11:13.441Z,2.83
2023-02-27T04:13:43.662Z,3.17
2023-02-27T04:16:51.052Z,2.72
2023-02-27T04:19:52.203Z,3.75
2023-02-27T04:22:37.127Z,2.95
2023-02-27T04:25:23.615Z,4.03
2023-02-27T04:28:12.716Z,3.35
2023-02-27T04:31:06.945Z,3.17
2023-02-27T04:34:05.883Z,4.85
2023-02-27T04:36:52.506Z,7.07
2023-02-27T04:39:28.121Z,6.03
2023-02-27T04:42:08.765Z,6.57
2023-02-27T04:44:47.451Z,9.75
2023-02-27T04:47:18.020Z,5.90
2023-02-27T04:49:48.629Z,5.43
2023-02-27T04:52:52.901Z,5.60
2023-02-27T04:55:33.274Z,5.50
2023-02-27T04:58:13.312Z,4.80
2023-02-27T05:00:46.927Z,8.77
2023-02-27T05:03:27.416Z,10.68
2023-02-27T05:06:07.701Z,7.93
2023-02-27T05:09:19.921Z,10.25
2023-02-27T05:12:01.949Z,6.32
2023-02-27T05:14:51.105Z,6.28
2023-02-27T05:17:35.917Z,7.05
2023-02-27T05:20:21.313Z,6.28
2023-02-27T05:23:11.372Z,5.72
2023-02-27T05:26:03.899Z,6.53
2023-02-27T05:28:37.628Z,5.07
2023-02-27T05:31:27.580Z,6.88
2023-02-27T05:37:04.604Z,5.82
2023-02-27T05:39:34.949Z,6.57
2023-02-27T05:42:07.307Z,7.20
2023-02-27T05:47:23.469Z,8.13
2023-02-27T05:49:56.830Z,9.13
2023-02-27T05:52:28.358Z,9.98
2023-02-27T05:55:33.835Z,8.52
2023-02-27T05:58:28.311Z,10.40
2023-02-27T06:01:09.137Z,8.75
2023-02-27T06:03:40.789Z,10.20
2023-02-27T06:06:21.258Z,10.20
2023-02-27T06:09:03.188Z,10.77
2023-02-27T06:11:39.153Z,7.00
2023-02-27T06:16:53.661Z,8.82
2023-02-27T06:19:30.268Z,8.40
2023-02-27T06:22:04.018Z,8.63
2023-02-27T06:24:34.883Z,10.88
2023-02-27T06:27:12.104Z,12.95
2023-02-27T06:29:42.562Z,8.38
2023-02-27T06:32:10.372Z,10.07
2023-02-27T06:34:42.785Z,9.82
2023-02-27T06:37:23.880Z,9.18
2023-02-27T06:40:26.804Z,7.20
2023-02-27T06:43:17.973Z,7.07
2023-02-27T06:45:50.136Z,7.68
2023-02-27T06:51:01.845Z,8.27
2023-02-27T06:53:42.129Z,9.73
2023-02-27T06:56:16.770Z,8.80
2023-02-27T06:59:05.128Z,8.93
2023-02-27T07:01:46.710Z,8.75
2023-02-27T07:04:16.550Z,7.18
2023-02-27T07:07:34.573Z,6.57
2023-02-27T07:09:46.525Z,6.10
2023-02-27T07:12:28.251Z,6.15
2023-02-27T07:15:05.117Z,5.88
2023-02-27T07:21:16.800Z,6.85
2023-02-27T07:23:50.645Z,9.60
2023-02-27T07:26:24.523Z,9.05
2023-02-27T07:36:51.426Z,12.73
2023-02-27T07:40:25.057Z,11.85
2023-02-27T07:47:33.956Z,13.55
2023-02-27T07:51:20.185Z,11.63
2023-02-27T08:00:18.812Z,10.18
2023-02-27T08:03:10.692Z,8.30
2023-02-27T08:06:53.995Z,9.80
2023-02-27T08:09:04.342Z,8.95
2023-02-27T08:19:16.000Z,5.78
2023-02-27T08:21:51.568Z,5.10
2023-02-27T08:24:56.103Z,5.32
2023-02-27T08:30:29.319Z,5.68
2023-02-27T08:32:57.598Z,5.68
2023-02-27T08:36:00.666Z,5.72
2023-02-27T08:38:38.174Z,5.75
2023-02-27T08:42:00.281Z,6.10
2023-02-27T08:48:08.975Z,5.35
2023-02-27T08:50:53.804Z,7.35
2023-02-27T08:53:27.033Z,7.15
2023-02-27T08:55:55.209Z,5.88
2023-02-27T08:58:28.167Z,5.03
2023-02-27T09:01:03.199Z,4.40
2023-02-27T09:06:28.646Z,4.28
2023-02-27T09:09:02.014Z,7.90
2023-02-27T09:11:33.069Z,8.82
2023-02-27T09:14:01.402Z,9.18
2023-02-27T09:16:32.625Z,8.30
2023-02-27T09:19:12.867Z,9.65
2023-02-27T09:21:41.566Z,7.57
2023-02-27T09:24:19.125Z,9.73
2023-02-27T09:26:49.715Z,9.75
2023-02-27T09:29:17.521Z,9.63
2023-02-27T09:31:45.768Z,8.32
2023-02-27T09:34:13.558Z,7.57
2023-02-27T09:39:36.522Z,6.20
2023-02-27T09:42:12.390Z,6.60
2023-02-27T09:45:07.646Z,6.95
2023-02-27T09:48:06.963Z,5.38
2023-02-27T09:51:18.031Z,5.00
2023-02-27T09:53:52.103Z,4.10
2023-02-27T09:56:45.561Z,4.18
2023-02-27T09:59:56.147Z,4.70
2023-02-27T10:07:24.623Z,7.45
2023-02-27T10:10:33.076Z,7.47
2023-02-27T10:13:15.459Z,7.32
2023-02-27T10:15:49.499Z,8.10
2023-02-27T10:18:38.317Z,8.50
2023-02-27T10:21:25.742Z,9.25
2023-02-27T10:24:16.168Z,9.27
2023-02-27T10:26:47.140Z,6.40
2023-02-27T10:30:29.803Z,6.18
2023-02-27T10:33:32.981Z,5.47
2023-02-27T10:39:21.899Z,5.05
2023-02-27T10:41:52.848Z,5.95
2023-02-27T10:44:24.670Z,6.57
2023-02-27T10:46:52.363Z,6.38
2023-02-27T10:49:22.330Z,7.63
2023-02-27T10:52:43.189Z,7.50
2023-02-27T10:55:25.945Z,4.15
2023-02-27T10:58:03.473Z,5.80
2023-02-27T11:00:56.059Z,8.27
2023-02-27T11:03:31.926Z,3.33
2023-02-27T11:06:09.630Z,4.13
2023-02-27T11:08:40.740Z,3.47
2023-02-27T11:11:12.965Z,3.33
2023-02-27T11:13:45.505Z,3.90
2023-02-27T11:16:19.247Z,4.05
2023-02-27T11:18:49.136Z,4.15
2023-02-27T11:21:26.481Z,5.72
2023-02-27T11:24:01.517Z,5.38
2023-02-27T11:26:58.238Z,5.82
2023-02-27T11:29:29.230Z,4.82
2023-02-27T11:32:15.674Z,4.00
2023-02-27T11:34:57.931Z,3.50
2023-02-27T11:37:35.020Z,4.55
2023-02-27T11:40:02.541Z,5.85
2023-02-27T11:42:34.140Z,5.25
2023-02-27T11:46:12.167Z,4.70
2023-02-27T11:48:18.870Z,4.28
2023-02-27T11:50:54.739Z,4.85
2023-02-27T11:53:53.408Z,3.88
2023-02-27T11:56:36.376Z,5.15
2023-02-27T11:59:17.598Z,5.05
2023-02-27T12:01:55.305Z,5.03
2023-02-27T12:04:40.375Z,8.70
2023-02-27T12:07:55.289Z,10.13
2023-02-27T12:10:28.354Z,9.48
2023-02-27T12:13:04.595Z,6.28
2023-02-27T12:15:41.044Z,7.72
2023-02-27T12:18:11.216Z,7.00
2023-02-27T12:20:57.672Z,5.85
2023-02-27T12:23:46.443Z,6.82
2023-02-27T12:26:25.831Z,6.47
2023-02-27T12:29:24.093Z,4.60
2023-02-27T12:32:02.528Z,3.00
2023-02-27T12:34:47.673Z,2.45
2023-02-27T12:37:29.080Z,3.28
2023-02-27T12:40:00.148Z,2.78
2023-02-27T12:42:27.544Z,3.50
2023-02-27T12:45:36.061Z,3.45
2023-02-27T12:48:44.356Z,2.80
2023-02-27T12:51:59.578Z,2.65
2023-02-27T12:55:04.463Z,1.85
2023-02-27T12:57:39.342Z,1.67
2023-02-27T13:00:11.081Z,2.10
2023-02-27T13:02:55.989Z,2.25
2023-02-27T13:05:48.049Z,1.70
2023-02-27T13:08:23.081Z,1.48
2023-02-27T13:11:00.122Z,1.10
2023-02-27T13:13:47.929Z,1.55
2023-02-27T13:16:22.426Z,1.65
2023-02-27T13:18:53.994Z,1.20
2023-02-27T13:21:52.094Z,1.45
2023-02-27T13:24:33.928Z,1.23
2023-02-27T13:27:18.876Z,1.55
2023-02-27T13:30:15.316Z,1.42
2023-02-27T13:33:20.094Z,1.05
2023-02-27T13:36:06.221Z,2.10
2023-02-27T13:38:35.387Z,1.10
2023-02-27T13:41:29.247Z,1.50
2023-02-27T13:43:58.267Z,1.88
2023-02-27T13:46:30.965Z,1.70
2023-02-27T13:49:26.954Z,1.63
2023-02-27T13:51:59.610Z,1.70
2023-02-27T13:54:39.785Z,1.50
2023-02-27T13:57:15.363Z,1.98
2023-02-27T13:59:53.685Z,1.15
2023-02-27T14:02:57.896Z,1.80
2023-02-27T14:05:42.907Z,2.03
2023-02-27T14:08:21.016Z,1.80
2023-02-27T14:11:09.597Z,1.17
2023-02-27T14:13:45.974Z,1.60
2023-02-27T14:16:38.682Z,1.38
2023-02-27T14:19:25.123Z,1.30
2023-02-27T14:22:05.173Z,1.25
2023-02-27T14:24:49.777Z,1.30
2023-02-27T14:29:53.223Z,1.27
2023-02-27T14:32:41.012Z,1.15
2023-02-27T14:35:16.569Z,1.17
2023-02-27T14:37:49.348Z,1.00
2023-02-27T14:40:30.542Z,1.30
2023-02-27T14:43:29.627Z,1.30
2023-02-27T14:46:06.180Z,1.58
2023-02-27T14:48:43.377Z,1.35
2023-02-27T14:54:22.243Z,1.77
2023-02-27T14:57:11.195Z,1.20
2023-02-27T14:59:56.044Z,1.08
2023-02-27T15:02:31.192Z,2.78
2023-02-27T15:05:02.342Z,1.23
2023-02-27T15:07:37.039Z,1.67
2023-02-27T15:10:21.356Z,1.63
2023-02-27T15:15:23.725Z,2.08
2023-02-27T15:17:55.941Z,3.72
2023-02-27T15:20:32.306Z,3.10
2023-02-27T15:23:27.296Z,1.80
2023-02-27T15:26:07.486Z,1.83
2023-02-27T15:28:46.316Z,1.45
2023-02-27T15:31:20.596Z,1.23
2023-02-27T15:33:49.269Z,1.23
2023-02-27T15:36:38.425Z,1.02
2023-02-27T15:39:21.348Z,1.42
2023-02-27T15:41:59.548Z,0.90
2023-02-27T15:44:41.835Z,1.08
2023-02-27T15:47:35.612Z,1.20
2023-02-27T15:50:12.722Z,0.93
2023-02-27T15:52:43.732Z,1.40
2023-02-27T15:55:22.848Z,1.80
2023-02-27T15:58:02.449Z,2.63
2023-02-27T16:00:32.018Z,3.33
2023-02-27T16:03:03.486Z,2.83
2023-02-27T16:05:36.220Z,3.08
2023-02-27T16:08:06.907Z,3.72
2023-02-27T16:10:49.961Z,4.15
2023-02-27T16:13:31.388Z,4.53
2023-02-27T16:16:12.505Z,3.53
2023-02-27T16:18:58.397Z,5.03
2023-02-27T16:21:38.761Z,4.97
2023-02-27T16:24:21.160Z,5.43
2023-02-27T16:26:57.560Z,6.10
2023-02-27T16:29:45.160Z,5.80
2023-02-27T16:32:27.290Z,6.93
2023-02-27T16:35:06.068Z,6.55
2023-02-27T16:37:41.436Z,8.93
2023-02-27T16:40:16.990Z,8.70
2023-02-27T16:42:45.463Z,13.23
2023-02-27T16:45:21.602Z,12.27
2023-02-27T16:47:50.379Z,12.13
2023-02-27T16:50:23.916Z,13.25
2023-02-27T16:52:51.406Z,10.93
2023-02-27T16:55:19.315Z,11.35
2023-02-27T16:57:46.768Z,10.88
2023-02-27T17:00:19.238Z,14.02
2023-02-27T17:02:50.136Z,12.60
2023-02-27T17:05:18.843Z,14.43
2023-02-27T17:07:46.408Z,17.20
2023-02-27T17:10:17.605Z,18.77
2023-02-27T17:12:47.094Z,21.02
2023-02-27T17:15:15.412Z,23.42
2023-02-27T17:17:43.308Z,22.10
2023-02-27T17:20:11.914Z,21.92
2023-02-27T17:22:43.889Z,20.20
2023-02-27T17:25:12.414Z,22.92
2023-02-27T17:27:45.089Z,21.83
2023-02-27T17:30:14.908Z,22.52
2023-02-27T17:32:42.260Z,20.55
2023-02-27T17:35:10.172Z,17.65
2023-02-27T17:37:37.725Z,16.95
2023-02-27T17:40:09.046Z,13.75
2023-02-27T17:42:39.361Z,14.55
2023-02-27T17:45:09.033Z,12.45
2023-02-27T17:47:40.767Z,13.68
2023-02-27T17:50:08.521Z,13.38
2023-02-27T17:52:37.180Z,12.90
2023-02-27T17:55:06.078Z,14.05
2023-02-27T17:57:40.068Z,16.70
2023-02-27T18:00:16.371Z,16.58
2023-02-27T18:02:45.614Z,15.50
2023-02-27T18:05:16.795Z,17.70
2023-02-27T18:07:43.969Z,19.30
2023-02-27T18:10:14.426Z,16.00
2023-02-27T18:12:43.528Z,15.68
2023-02-27T18:15:11.758Z,15.02
2023-02-27T18:17:39.330Z,17.02
2023-02-27T18:20:07.359Z,16.67
2023-02-27T18:22:34.708Z,14.73
2023-02-27T18:25:01.874Z,14.02
2023-02-27T18:27:30.782Z,12.10
2023-02-27T18:29:58.644Z,11.88
2023-02-27T18:32:25.842Z,13.40
2023-02-27T18:34:54.191Z,14.07
2023-02-27T18:37:21.538Z,15.18
2023-02-27T18:39:48.895Z,13.57
2023-02-27T18:42:16.413Z,13.73
2023-02-27T18:44:43.769Z,13.85
2023-02-27T18:47:12.344Z,13.45
2023-02-27T18:49:43.250Z,10.90
2023-02-27T18:52:10.447Z,10.40
2023-02-27T18:54:38.109Z,10.45
2023-02-27T18:57:06.611Z,12.55
2023-02-27T18:59:36.803Z,7.57
2023-02-27T19:02:04.174Z,8.52
2023-02-27T19:04:34.583Z,8.13
2023-02-27T19:07:04.713Z,10.55
2023-02-27T19:09:32.892Z,12.07
2023-02-27T19:12:02.586Z,11.52
2023-02-27T19:14:29.644Z,12.48
2023-02-27T19:17:00.375Z,9.75
2023-02-27T19:19:32.510Z,9.85
2023-02-27T19:21:59.765Z,9.90
2023-02-27T19:24:27.160Z,9.52
2023-02-27T19:26:54.679Z,8.02
2023-02-27T19:29:22.010Z,6.68
2023-02-27T19:31:50.143Z,8.75
2023-02-27T19:34:17.457Z,10.45
2023-02-27T19:36:45.437Z,9.38
2023-02-27T19:39:12.677Z,8.85
2023-02-27T19:41:40.368Z,9.23
2023-02-27T19:44:08.461Z,8.63
2023-02-27T19:46:36.952Z,9.48
2023-02-27T19:49:06.569Z,9.43
2023-02-27T19:51:34.612Z,10.38
2023-02-27T19:54:02.761Z,8.15
2023-02-27T19:56:31.129Z,6.90
2023-02-27T19:59:01.943Z,7.22
2023-02-27T20:01:35.005Z,5.65
2023-02-27T20:04:03.640Z,7.43
2023-02-27T20:06:33.390Z,6.88
2023-02-27T20:09:01.480Z,6.65
2023-02-27T20:11:32.711Z,6.53
2023-02-27T20:14:01.018Z,7.38
2023-02-27T20:16:33.010Z,6.97
2023-02-27T20:19:02.045Z,7.32
2023-02-27T20:21:30.156Z,7.97
2023-02-27T20:23:58.757Z,8.50
2023-02-27T20:26:35.522Z,7.05
2023-02-27T20:29:11.516Z,7.97
2023-02-27T20:31:41.068Z,8.70
2023-02-27T20:34:11.514Z,8.35
2023-02-27T20:36:40.287Z,7.85
2023-02-27T20:39:12.141Z,7.63
2023-02-27T20:41:42.068Z,8.45
2023-02-27T20:44:11.603Z,9.23
2023-02-27T20:46:41.412Z,9.27
2023-02-27T20:49:10.378Z,8.20
2023-02-27T20:51:39.809Z,9.05
2023-02-27T20:54:09.887Z,7.20
2023-02-27T20:56:41.528Z,8.15
2023-02-27T20:59:19.369Z,7.47
2023-02-27T21:01:51.876Z,6.43
2023-02-27T21:04:43.013Z,7.18
2023-02-27T21:09:39.768Z,7.30
2023-02-27T21:12:08.063Z,11.18
2023-02-27T21:14:35.514Z,10.43
2023-02-27T21:17:02.672Z,9.93
2023-02-27T21:19:30.702Z,10.00
2023-02-27T21:21:58.150Z,10.23
2023-02-27T21:24:27.540Z,9.82
2023-02-27T21:26:54.786Z,9.02
2023-02-27T21:29:22.773Z,9.45
2023-02-27T21:31:51.847Z,9.73
2023-02-27T21:34:22.829Z,10.05
2023-02-27T21:36:52.271Z,8.65
2023-02-27T21:39:26.288Z,8.18
2023-02-27T21:41:54.233Z,7.72
2023-02-27T21:44:25.351Z,8.45
2023-02-27T21:46:56.076Z,7.50
2023-02-27T21:49:28.273Z,5.85
2023-02-27T21:51:56.500Z,6.15
2023-02-27T21:54:24.083Z,6.75
2023-02-27T21:56:51.639Z,5.50
2023-02-27T21:59:20.468Z,5.30
2023-02-27T22:01:48.510Z,5.82
2023-02-27T22:04:18.101Z,5.57
2023-02-27T22:06:46.456Z,7.07
2023-02-27T22:09:14.126Z,5.00
2023-02-27T22:11:41.992Z,4.80
2023-02-27T22:14:13.235Z,4.47
2023-02-27T22:16:41.677Z,4.93
2023-02-27T22:19:12.136Z,5.65
2023-02-27T22:21:40.686Z,3.85
2023-02-27T22:24:08.857Z,4.75
2023-02-27T22:26:36.267Z,4.18
2023-02-27T22:29:07.602Z,4.88
2023-02-27T22:31:39.110Z,4.32
2023-02-27T22:34:18.827Z,3.90
2023-02-27T22:36:48.781Z,3.72
2023-02-27T22:39:16.073Z,3.75
2023-02-27T22:41:43.332Z,4.38
2023-02-27T22:44:14.122Z,4.50
2023-02-27T22:46:45.029Z,3.63
2023-02-27T22:49:19.358Z,4.00
2023-02-27T22:52:00.759Z,4.78
2023-02-27T22:54:28.051Z,4.47
2023-02-27T22:56:57.907Z,4.90
2023-02-27T22:59:26.305Z,4.18
2023-02-27T23:01:54.185Z,4.43
2023-02-27T23:04:22.484Z,5.72
2023-02-27T23:06:52.543Z,5.50
2023-02-27T23:09:22.250Z,5.57
2023-02-27T23:11:49.364Z,5.22
2023-02-27T23:14:17.739Z,4.75
2023-02-27T23:16:46.097Z,4.57
2023-02-27T23:19:23.472Z,3.83
2023-02-27T23:21:50.786Z,4.68
2023-02-27T23:24:19.371Z,4.20
2023-02-27T23:26:49.630Z,2.83
2023-02-27T23:29:16.989Z,3.30
2023-02-27T23:31:44.455Z,2.67
2023-02-27T23:34:12.963Z,2.95
2023-02-27T23:36:41.352Z,5.50
2023-02-27T23:39:09.134Z,6.68
2023-02-27T23:41:39.331Z,6.25
2023-02-27T23:44:12.359Z,6.80
2023-02-27T23:46:39.694Z,4.82
2023-02-27T23:49:07.203Z,3.95
2023-02-27T23:51:34.975Z,3.35
2023-02-27T23:54:02.645Z,2.33
2023-02-27T23:56:30.853Z,2.50
2023-02-27T23:59:01.952Z,2.45
